createdAt,value
2019-03-05T00:00:35.186Z,4.60
2019-03-05T00:01:35.159Z,4.90
2019-03-05T00:02:35.139Z,4.60
2019-03-05T00:03:35.114Z,4.90
2019-03-05T00:04:35.095Z,4.40
2019-03-05T00:05:35.076Z,4.70
2019-03-05T00:06:35.061Z,4.50
2019-03-05T00:07:35.040Z,4.50
2019-03-05T00:08:35.026Z,4.80
2019-03-05T00:09:35.005Z,4.30
2019-03-05T00:10:34.979Z,4.70
2019-03-05T00:11:34.960Z,4.60
2019-03-05T00:12:34.943Z,4.30
2019-03-05T00:13:34.928Z,4.80
2019-03-05T00:14:34.887Z,4.40
2019-03-05T00:15:34.894Z,4.40
2019-03-05T00:16:34.872Z,4.40
2019-03-05T00:17:34.845Z,4.20
2019-03-05T00:18:34.823Z,4.70
2019-03-05T00:19:34.807Z,5.20
2019-03-05T00:20:34.784Z,4.80
2019-03-05T00:21:34.764Z,4.70
2019-03-05T00:22:34.752Z,4.30
2019-03-05T00:23:34.736Z,4.80
2019-03-05T00:24:34.712Z,4.00
2019-03-05T00:25:34.695Z,4.60
2019-03-05T00:26:34.730Z,4.80
2019-03-05T00:27:34.656Z,4.60
2019-03-05T00:28:34.810Z,5.00
2019-03-05T00:29:34.625Z,4.50
2019-03-05T00:30:34.601Z,5.20
2019-03-05T00:31:34.578Z,5.00
2019-03-05T00:32:34.561Z,4.70
2019-03-05T00:33:34.544Z,4.80
2019-03-05T00:34:34.524Z,4.30
2019-03-05T00:35:34.571Z,4.70
2019-03-05T00:36:34.466Z,4.80
2019-03-05T00:37:34.445Z,4.30
2019-03-05T00:38:34.439Z,5.20
2019-03-05T00:39:34.421Z,4.80
2019-03-05T00:40:34.407Z,5.10
2019-03-05T00:41:34.390Z,4.90
2019-03-05T00:42:34.342Z,5.00
2019-03-05T00:43:34.340Z,5.40
2019-03-05T00:44:34.307Z,5.30
2019-03-05T00:45:34.284Z,5.00
2019-03-05T00:46:34.288Z,4.80
2019-03-05T00:47:34.267Z,4.70
2019-03-05T00:48:34.249Z,5.10
2019-03-05T00:49:34.232Z,5.50
2019-03-05T00:50:34.213Z,5.60
2019-03-05T00:51:34.189Z,5.30
2019-03-05T00:52:34.144Z,5.30
2019-03-05T00:53:34.134Z,4.70
2019-03-05T00:54:34.129Z,5.00
2019-03-05T00:55:34.088Z,5.20
2019-03-05T00:56:34.072Z,5.20
2019-03-05T00:57:34.053Z,5.60
2019-03-05T00:58:34.054Z,4.70
2019-03-05T00:59:34.039Z,5.50
2019-03-05T01:00:34.018Z,5.20
2019-03-05T01:01:33.992Z,5.00
2019-03-05T01:02:33.981Z,5.00
2019-03-05T01:03:33.953Z,4.90
2019-03-05T01:04:33.937Z,4.60
2019-03-05T01:05:33.917Z,4.60
2019-03-05T01:06:33.901Z,4.70
2019-03-05T01:07:33.873Z,4.70
2019-03-05T01:08:33.862Z,5.00
2019-03-05T01:09:33.835Z,4.60
2019-03-05T01:10:33.818Z,4.70
2019-03-05T01:11:33.794Z,5.20
2019-03-05T01:12:33.782Z,5.10
2019-03-05T01:13:33.742Z,5.00
2019-03-05T01:14:33.748Z,4.90
2019-03-05T01:15:33.723Z,5.50
2019-03-05T01:16:33.705Z,5.80
2019-03-05T01:17:33.684Z,5.40
2019-03-05T01:18:33.661Z,5.10
2019-03-05T01:19:33.628Z,5.50
2019-03-05T01:20:33.607Z,4.90
2019-03-05T01:21:33.582Z,5.00
2019-03-05T01:22:33.581Z,5.50
2019-03-05T01:23:33.564Z,4.70
2019-03-05T01:24:33.544Z,5.00
2019-03-05T01:25:33.530Z,5.40
2019-03-05T01:26:33.504Z,4.80
2019-03-05T01:27:33.492Z,4.90
2019-03-05T01:28:33.473Z,4.70
2019-03-05T01:29:33.449Z,5.20
2019-03-05T01:30:33.435Z,5.50
2019-03-05T01:31:33.393Z,5.10
2019-03-05T01:32:33.397Z,5.10
2019-03-05T01:33:33.369Z,4.70
2019-03-05T01:34:33.355Z,5.20
2019-03-05T01:35:33.328Z,5.10
2019-03-05T01:36:33.309Z,5.00
2019-03-05T01:37:33.293Z,4.90
2019-03-05T01:38:33.253Z,4.60
2019-03-05T01:39:33.241Z,4.70
2019-03-05T01:40:33.240Z,4.90
2019-03-05T01:41:33.217Z,4.80
2019-03-05T01:42:33.191Z,4.60
2019-03-05T01:43:33.173Z,4.80
2019-03-05T01:44:33.164Z,4.90
2019-03-05T01:45:33.138Z,4.80
2019-03-05T01:46:33.123Z,4.10
2019-03-05T01:47:33.116Z,4.50
2019-03-05T01:48:33.057Z,4.00
2019-03-05T01:49:33.041Z,4.60
2019-03-05T01:50:33.040Z,4.50
2019-03-05T01:51:33.020Z,4.50
2019-03-05T01:52:33.005Z,4.70
2019-03-05T01:53:32.978Z,4.10
2019-03-05T01:54:32.965Z,3.80
2019-03-05T01:55:32.946Z,4.30
2019-03-05T01:56:32.900Z,4.10
2019-03-05T01:57:32.887Z,4.60
2019-03-05T01:58:32.889Z,4.40
2019-03-05T01:59:32.849Z,4.50
2019-03-05T02:00:32.846Z,4.90
2019-03-05T02:01:32.804Z,4.90
2019-03-05T02:02:32.800Z,4.20
2019-03-05T02:03:32.781Z,4.60
2019-03-05T02:04:32.766Z,4.20
2019-03-05T02:05:32.750Z,4.20
2019-03-05T02:06:32.738Z,4.20
2019-03-05T02:07:32.688Z,4.60
2019-03-05T02:08:32.686Z,4.30
2019-03-05T02:09:32.672Z,4.20
2019-03-05T02:10:32.646Z,4.20
2019-03-05T02:11:32.624Z,4.60
2019-03-05T02:12:32.612Z,4.40
2019-03-05T02:13:32.584Z,4.60
2019-03-05T02:14:32.571Z,5.20
2019-03-05T02:15:32.549Z,5.10
2019-03-05T02:16:32.507Z,5.20
2019-03-05T02:17:32.491Z,5.80
2019-03-05T02:18:32.484Z,6.80
2019-03-05T02:19:32.464Z,6.50
2019-03-05T02:20:32.451Z,6.20
2019-03-05T02:21:32.430Z,6.20
2019-03-05T02:22:32.412Z,6.70
2019-03-05T02:23:32.379Z,6.70
2019-03-05T02:24:32.349Z,6.40
2019-03-05T02:25:32.351Z,6.20
2019-03-05T02:26:32.334Z,6.50
2019-03-05T02:27:32.312Z,6.10
2019-03-05T02:28:32.294Z,5.50
2019-03-05T02:29:32.677Z,6.00
2019-03-05T02:30:32.255Z,5.60
2019-03-05T02:31:32.234Z,6.40
2019-03-05T02:32:32.217Z,5.60
2019-03-05T02:33:32.197Z,6.20
2019-03-05T02:34:32.184Z,6.20
2019-03-05T02:35:32.141Z,6.00
2019-03-05T02:36:32.145Z,5.60
2019-03-05T02:37:32.121Z,6.60
2019-03-05T02:38:32.255Z,6.10
2019-03-05T02:39:32.083Z,6.90
2019-03-05T02:40:32.058Z,6.10
2019-03-05T02:41:32.064Z,6.50
2019-03-05T02:42:32.030Z,6.60
2019-03-05T02:43:32.004Z,7.10
2019-03-05T02:44:31.990Z,7.10
2019-03-05T02:45:31.952Z,6.90
2019-03-05T02:46:31.941Z,6.50
2019-03-05T02:47:31.936Z,6.60
2019-03-05T02:48:31.904Z,6.60
2019-03-05T02:49:31.884Z,7.00
2019-03-05T02:50:31.848Z,6.70
2019-03-05T02:51:31.846Z,7.10
2019-03-05T02:52:31.806Z,7.10
2019-03-05T02:53:31.809Z,6.30
2019-03-05T02:54:31.786Z,6.80
2019-03-05T02:55:31.771Z,6.20
2019-03-05T02:56:31.743Z,6.30
2019-03-05T02:57:31.729Z,7.00
2019-03-05T02:58:31.713Z,6.30
2019-03-05T02:59:31.683Z,6.50
2019-03-05T03:06:09.185Z,6.80
2019-03-05T03:06:43.496Z,6.90
2019-03-05T03:07:43.460Z,7.80
2019-03-05T03:08:43.469Z,8.80
2019-03-05T03:09:43.425Z,9.00
2019-03-05T03:10:43.408Z,8.40
2019-03-05T03:11:43.390Z,12.40
2019-03-05T03:12:43.381Z,11.80
2019-03-05T03:13:43.343Z,15.40
2019-03-05T03:14:43.453Z,15.20
2019-03-05T03:15:43.306Z,13.30
2019-03-05T03:16:43.292Z,16.30
2019-03-05T03:17:43.269Z,17.80
2019-03-05T03:18:43.226Z,16.10
2019-03-05T03:19:43.233Z,17.70
2019-03-05T03:20:43.205Z,18.40
2019-03-05T03:21:43.184Z,14.30
2019-03-05T03:22:43.174Z,15.90
2019-03-05T03:23:43.149Z,17.70
2019-03-05T03:24:43.107Z,21.50
2019-03-05T03:25:43.105Z,17.50
2019-03-05T03:26:43.072Z,21.10
2019-03-05T03:27:43.069Z,18.80
2019-03-05T03:28:43.054Z,16.70
2019-03-05T03:29:43.037Z,18.40
2019-03-05T03:30:43.013Z,15.00
2019-03-05T03:31:42.983Z,18.90
2019-03-05T03:32:42.985Z,17.90
2019-03-05T03:33:42.927Z,17.40
2019-03-05T03:34:42.924Z,16.60
2019-03-05T03:35:42.926Z,17.50
2019-03-05T03:36:42.889Z,16.70
2019-03-05T03:37:42.871Z,14.90
2019-03-05T03:38:42.853Z,10.50
2019-03-05T03:39:42.826Z,12.40
2019-03-05T03:40:42.816Z,10.60
2019-03-05T03:41:42.783Z,10.20
2019-03-05T03:42:42.765Z,12.60
2019-03-05T03:43:42.877Z,8.90
2019-03-05T03:44:42.726Z,11.20
2019-03-05T03:45:42.715Z,11.50
2019-03-05T03:46:42.697Z,10.90
2019-03-05T03:47:42.651Z,11.90
2019-03-05T03:48:42.655Z,12.60
2019-03-05T03:49:42.626Z,11.50
2019-03-05T03:50:42.610Z,13.10
2019-03-05T03:51:42.588Z,12.70
2019-03-05T03:52:42.547Z,12.10
2019-03-05T03:53:42.536Z,13.10
2019-03-05T03:54:42.531Z,13.00
2019-03-05T03:55:42.509Z,13.60
2019-03-05T03:56:42.488Z,11.60
2019-03-05T03:57:42.476Z,13.20
2019-03-05T03:58:42.446Z,12.70
2019-03-05T03:59:42.431Z,12.90
2019-03-05T04:00:42.393Z,10.90
2019-03-05T04:01:42.368Z,12.10
2019-03-05T04:02:42.373Z,12.10
2019-03-05T04:03:42.348Z,11.00
2019-03-05T04:04:42.347Z,11.00
2019-03-05T04:05:42.312Z,11.40
2019-03-05T04:06:42.296Z,12.80
2019-03-05T04:07:42.277Z,12.90
2019-03-05T04:08:42.248Z,12.50
2019-03-05T04:09:42.239Z,13.00
2019-03-05T04:10:42.213Z,12.70
2019-03-05T04:11:42.189Z,12.60
2019-03-05T04:12:42.167Z,13.70
2019-03-05T04:13:42.149Z,12.60
2019-03-05T04:14:42.118Z,13.40
2019-03-05T04:15:42.106Z,12.80
2019-03-05T04:16:42.089Z,14.20
2019-03-05T04:17:42.069Z,14.80
2019-03-05T04:18:42.057Z,13.80
2019-03-05T04:19:42.032Z,12.20
2019-03-05T04:20:41.991Z,12.50
2019-03-05T04:21:41.987Z,11.30
2019-03-05T04:22:41.954Z,10.90
2019-03-05T04:23:41.938Z,11.00
2019-03-05T04:24:41.937Z,11.30
2019-03-05T04:25:41.912Z,11.80
2019-03-05T04:26:41.892Z,10.80
2019-03-05T04:27:41.873Z,10.40
2019-03-05T04:28:41.832Z,10.80
2019-03-05T04:29:41.834Z,9.80
2019-03-05T04:30:41.811Z,11.50
2019-03-05T04:31:41.800Z,11.30
2019-03-05T04:32:41.773Z,9.20
2019-03-05T04:33:41.755Z,10.10
2019-03-05T04:34:41.730Z,9.80
2019-03-05T04:35:41.718Z,9.20
2019-03-05T04:36:41.675Z,9.40
2019-03-05T04:37:41.653Z,9.70
2019-03-05T04:38:41.651Z,10.90
2019-03-05T04:39:41.634Z,12.20
2019-03-05T04:40:41.594Z,11.40
2019-03-05T04:41:41.572Z,11.00
2019-03-05T04:42:41.551Z,11.70
2019-03-05T04:43:41.532Z,12.00
2019-03-05T04:44:41.534Z,11.40
2019-03-05T04:45:41.510Z,11.30
2019-03-05T04:46:41.493Z,11.00
2019-03-05T04:47:41.470Z,11.00
2019-03-05T04:48:41.461Z,10.50
2019-03-05T04:49:41.432Z,10.70
2019-03-05T04:50:41.411Z,11.70
2019-03-05T04:51:41.373Z,11.30
2019-03-05T04:52:41.368Z,11.60
2019-03-05T04:53:41.349Z,11.90
2019-03-05T04:54:41.410Z,12.30
2019-03-05T04:55:41.306Z,12.70
2019-03-05T04:56:41.299Z,13.00
2019-03-05T04:57:41.271Z,12.50
2019-03-05T04:58:41.250Z,11.80
2019-03-05T04:59:41.231Z,11.40
2019-03-05T05:00:41.216Z,12.00
2019-03-05T05:01:41.192Z,12.50
2019-03-05T05:02:41.170Z,12.70
2019-03-05T05:03:41.150Z,12.30
2019-03-05T05:04:41.110Z,12.80
2019-03-05T05:05:41.093Z,12.40
2019-03-05T05:06:41.093Z,12.00
2019-03-05T05:07:41.072Z,12.50
2019-03-05T05:08:41.055Z,11.90
2019-03-05T05:09:41.032Z,12.20
2019-03-05T05:10:41.016Z,11.80
2019-03-05T05:11:40.991Z,12.80
2019-03-05T05:12:40.974Z,12.60
2019-03-05T05:13:40.950Z,12.20
2019-03-05T05:14:40.934Z,12.60
2019-03-05T05:15:40.911Z,13.00
2019-03-05T05:16:40.899Z,12.70
2019-03-05T05:17:40.868Z,13.00
2019-03-05T05:18:40.836Z,12.90
2019-03-05T05:19:40.806Z,13.10
2019-03-05T05:20:40.810Z,12.80
2019-03-05T05:21:40.791Z,12.80
2019-03-05T05:22:40.768Z,14.10
2019-03-05T05:23:40.744Z,13.00
2019-03-05T05:24:40.735Z,13.60
2019-03-05T05:25:40.716Z,13.20
2019-03-05T05:26:40.673Z,13.10
2019-03-05T05:27:40.650Z,12.50
2019-03-05T05:28:40.650Z,12.90
2019-03-05T05:29:40.630Z,12.50
2019-03-05T05:30:40.609Z,13.30
2019-03-05T05:31:40.589Z,12.60
2019-03-05T05:32:40.568Z,12.80
2019-03-05T05:33:40.545Z,12.70
2019-03-05T05:34:40.531Z,12.30
2019-03-05T05:35:40.511Z,13.60
2019-03-05T05:36:40.487Z,12.60
2019-03-05T05:37:40.468Z,13.10
2019-03-05T05:38:40.452Z,11.30
2019-03-05T05:39:40.428Z,12.30
2019-03-05T05:40:40.414Z,12.40
2019-03-05T05:41:40.392Z,13.60
2019-03-05T05:42:40.364Z,12.80
2019-03-05T05:43:40.350Z,13.30
2019-03-05T05:44:40.329Z,13.00
2019-03-05T05:45:40.290Z,13.50
2019-03-05T05:46:40.289Z,13.00
2019-03-05T05:47:40.267Z,12.00
2019-03-05T05:48:40.249Z,12.90
2019-03-05T05:49:40.227Z,12.90
2019-03-05T05:50:40.209Z,13.60
2019-03-05T05:51:40.187Z,13.50
2019-03-05T05:52:40.163Z,14.10
2019-03-05T05:53:40.145Z,13.90
2019-03-05T05:54:40.135Z,12.60
2019-03-05T05:55:40.091Z,12.20
2019-03-05T05:56:40.082Z,13.40
2019-03-05T05:57:40.063Z,13.50
2019-03-05T05:58:40.043Z,14.50
2019-03-05T05:59:40.023Z,13.40
2019-03-05T06:00:40.009Z,14.60
2019-03-05T06:01:39.991Z,16.10
2019-03-05T06:02:39.966Z,16.70
2019-03-05T06:03:39.948Z,15.40
2019-03-05T06:04:39.929Z,16.70
2019-03-05T06:05:39.900Z,17.10
2019-03-05T06:06:39.889Z,16.20
2019-03-05T06:07:39.868Z,16.50
2019-03-05T06:08:39.829Z,15.40
2019-03-05T06:09:39.808Z,16.50
2019-03-05T06:10:39.802Z,16.60
2019-03-05T06:11:39.793Z,17.20
2019-03-05T06:12:39.761Z,16.90
2019-03-05T06:13:39.742Z,15.90
2019-03-05T06:15:12.933Z,15.00
2019-03-05T06:15:39.700Z,14.20
2019-03-05T06:16:39.691Z,14.80
2019-03-05T06:17:39.663Z,14.50
2019-03-05T06:18:39.640Z,14.30
2019-03-05T06:19:39.623Z,12.70
2019-03-05T06:20:39.603Z,13.30
2019-03-05T06:21:39.568Z,13.10
2019-03-05T06:22:39.539Z,13.70
2019-03-05T06:23:39.550Z,13.70
2019-03-05T06:24:39.517Z,13.10
2019-03-05T06:25:39.501Z,13.00
2019-03-05T06:26:39.479Z,12.50
2019-03-05T06:27:39.449Z,13.20
2019-03-05T06:28:39.421Z,13.60
2019-03-05T06:29:39.419Z,13.00
2019-03-05T06:30:39.379Z,12.50
2019-03-05T06:31:39.381Z,12.80
2019-03-05T06:32:39.360Z,12.80
2019-03-05T06:33:39.342Z,11.90
2019-03-05T06:34:39.322Z,11.30
2019-03-05T06:35:39.280Z,10.10
2019-03-05T06:36:39.279Z,11.60
2019-03-05T06:37:39.262Z,10.30
2019-03-05T06:38:39.223Z,10.40
2019-03-05T06:39:39.220Z,11.10
2019-03-05T06:40:39.204Z,11.60
2019-03-05T06:41:39.174Z,12.40
2019-03-05T06:42:39.160Z,11.60
2019-03-05T06:43:39.118Z,12.00
2019-03-05T06:44:39.103Z,11.90
2019-03-05T06:45:39.094Z,11.80
2019-03-05T06:46:39.081Z,11.20
2019-03-05T06:47:39.061Z,11.70
2019-03-05T06:48:39.041Z,11.40
2019-03-05T06:49:39.001Z,11.60
2019-03-05T06:50:39.003Z,11.10
2019-03-05T06:51:38.973Z,10.50
2019-03-05T06:52:38.965Z,11.00
2019-03-05T06:53:38.936Z,11.10
2019-03-05T06:54:38.914Z,11.50
2019-03-05T06:55:38.894Z,11.30
2019-03-05T06:56:38.880Z,11.80
2019-03-05T06:57:38.861Z,11.50
2019-03-05T06:58:38.819Z,10.90
2019-03-05T06:59:38.814Z,10.80
2019-03-05T07:00:38.798Z,11.10
2019-03-05T07:01:38.777Z,9.50
2019-03-05T07:02:38.755Z,10.90
2019-03-05T07:03:38.740Z,11.50
2019-03-05T07:04:38.714Z,11.70
2019-03-05T07:05:38.700Z,11.30
2019-03-05T07:06:38.675Z,10.90
2019-03-05T07:07:38.656Z,10.60
2019-03-05T07:08:38.633Z,11.70
2019-03-05T07:09:38.613Z,12.00
2019-03-05T07:10:38.600Z,12.80
2019-03-05T07:11:38.566Z,11.30
2019-03-05T07:12:38.536Z,10.50
2019-03-05T07:13:38.519Z,10.80
2019-03-05T07:14:38.520Z,10.20
2019-03-05T07:15:38.495Z,10.90
2019-03-05T07:16:38.480Z,10.70
2019-03-05T07:17:38.459Z,11.20
2019-03-05T07:18:38.437Z,10.90
2019-03-05T07:19:38.399Z,11.30
2019-03-05T07:20:38.378Z,10.80
2019-03-05T07:21:38.373Z,11.80
2019-03-05T07:22:38.336Z,11.00
2019-03-05T07:23:38.338Z,11.20
2019-03-05T07:24:38.392Z,11.30
2019-03-05T07:25:38.291Z,11.30
2019-03-05T07:26:38.277Z,12.40
2019-03-05T07:27:38.252Z,11.30
2019-03-05T07:28:38.231Z,11.80
2019-03-05T07:29:38.222Z,12.00
2019-03-05T07:30:38.194Z,11.50
2019-03-05T07:31:38.184Z,11.80
2019-03-05T07:32:38.159Z,11.80
2019-03-05T07:33:38.139Z,11.80
2019-03-05T07:34:38.120Z,11.30
2019-03-05T07:35:38.091Z,11.70
2019-03-05T07:36:38.058Z,11.60
2019-03-05T07:37:38.049Z,13.00
2019-03-05T07:38:38.033Z,14.70
2019-03-05T07:39:38.010Z,13.10
2019-03-05T07:40:37.992Z,13.70
2019-03-05T07:41:37.972Z,14.00
2019-03-05T07:42:37.957Z,14.40
2019-03-05T07:43:37.909Z,14.80
2019-03-05T07:44:37.918Z,14.20
2019-03-05T07:45:37.893Z,14.90
2019-03-05T07:46:37.852Z,14.90
2019-03-05T07:47:37.851Z,14.70
2019-03-05T07:48:37.827Z,14.80
2019-03-05T07:49:43.596Z,15.60
2019-03-05T07:50:37.785Z,14.70
2019-03-05T07:51:37.764Z,14.70
2019-03-05T07:52:37.749Z,14.00
2019-03-05T07:53:37.730Z,14.00
2019-03-05T07:54:37.711Z,13.10
2019-03-05T07:55:37.688Z,13.40
2019-03-05T07:56:37.670Z,13.60
2019-03-05T07:57:37.626Z,12.90
2019-03-05T07:58:37.623Z,13.60
2019-03-05T07:59:37.610Z,13.10
2019-03-05T08:00:37.578Z,12.80
2019-03-05T08:01:37.571Z,11.40
2019-03-05T08:02:37.542Z,11.70
2019-03-05T08:03:37.528Z,12.10
2019-03-05T08:04:37.507Z,12.70
2019-03-05T08:05:37.484Z,12.50
2019-03-05T08:06:37.441Z,11.10
2019-03-05T08:07:37.436Z,11.30
2019-03-05T08:08:37.415Z,11.40
2019-03-05T08:09:37.413Z,11.70
2019-03-05T08:10:37.371Z,11.30
2019-03-05T08:11:37.337Z,10.90
2019-03-05T08:12:37.338Z,11.80
2019-03-05T08:13:37.296Z,11.20
2019-03-05T08:14:37.301Z,10.60
2019-03-05T08:15:37.281Z,11.20
2019-03-05T08:17:10.462Z,11.40
2019-03-05T08:17:37.234Z,11.00
2019-03-05T08:18:37.289Z,11.10
2019-03-05T08:19:37.196Z,11.20
2019-03-05T08:20:37.169Z,11.20
2019-03-05T08:21:37.159Z,11.20
2019-03-05T08:22:37.133Z,11.20
2019-03-05T08:23:37.088Z,11.00
2019-03-05T08:24:37.089Z,10.90
2019-03-05T08:25:37.071Z,10.20
2019-03-05T08:26:37.050Z,11.30
2019-03-05T08:27:37.029Z,10.90
2019-03-05T08:28:37.008Z,9.60
2019-03-05T08:29:36.982Z,10.20
2019-03-05T08:30:36.967Z,10.70
2019-03-05T08:31:36.945Z,10.60
2019-03-05T08:32:36.931Z,10.10
2019-03-05T08:33:36.882Z,10.10
2019-03-05T08:34:36.879Z,10.40
2019-03-05T08:35:36.865Z,9.80
2019-03-05T08:36:36.840Z,10.40
2019-03-05T08:37:36.823Z,10.50
2019-03-05T08:38:36.781Z,9.90
2019-03-05T08:39:36.761Z,9.90
2019-03-05T08:40:36.766Z,9.30
2019-03-05T08:41:36.735Z,9.70
2019-03-05T08:42:36.719Z,10.10
2019-03-05T08:43:36.698Z,9.90
2019-03-05T08:44:36.682Z,10.50
2019-03-05T08:45:36.658Z,10.90
2019-03-05T08:46:36.632Z,10.60
2019-03-05T08:47:36.613Z,10.60
2019-03-05T08:48:36.579Z,10.60
2019-03-05T08:49:36.564Z,11.10
2019-03-05T08:50:36.557Z,11.80
2019-03-05T08:51:36.534Z,11.30
2019-03-05T08:52:36.520Z,11.60
2019-03-05T08:53:36.493Z,11.50
2019-03-05T08:54:36.466Z,11.90
2019-03-05T08:55:36.446Z,12.90
2019-03-05T08:56:36.435Z,11.70
2019-03-05T08:57:36.406Z,12.60
2019-03-05T08:58:36.384Z,13.70
2019-03-05T08:59:36.368Z,13.40
2019-03-05T09:00:36.356Z,12.60
2019-03-05T09:01:36.310Z,12.40
2019-03-05T09:02:47.771Z,14.80
2019-03-05T09:03:36.291Z,14.10
2019-03-05T09:04:36.265Z,20.20
2019-03-05T09:05:36.250Z,18.00
2019-03-05T09:06:36.203Z,17.20
2019-03-05T09:07:36.206Z,17.40
2019-03-05T09:08:38.397Z,18.40
2019-03-05T09:09:36.165Z,16.90
2019-03-05T09:10:36.147Z,15.10
2019-03-05T09:11:36.119Z,16.10
2019-03-05T09:12:36.100Z,13.50
2019-03-05T09:13:36.077Z,13.50
2019-03-05T09:14:36.043Z,11.20
2019-03-05T09:15:36.042Z,11.60
2019-03-05T09:16:36.025Z,11.80
2019-03-05T09:17:36.001Z,10.60
2019-03-05T09:18:35.975Z,11.10
2019-03-05T09:19:35.958Z,11.40
2019-03-05T09:20:35.944Z,9.50
2019-03-05T09:21:35.916Z,9.10
2019-03-05T09:22:35.894Z,10.20
2019-03-05T09:23:35.853Z,9.90
2019-03-05T09:24:35.854Z,10.50
2019-03-05T09:25:35.842Z,9.30
2019-03-05T09:26:35.821Z,9.70
2019-03-05T09:27:35.803Z,10.40
2019-03-05T09:28:35.753Z,9.90
2019-03-05T09:29:35.760Z,9.50
2019-03-05T09:30:35.738Z,9.40
2019-03-05T09:31:35.712Z,9.80
2019-03-05T09:32:35.701Z,9.90
2019-03-05T09:33:35.683Z,10.00
2019-03-05T09:34:35.654Z,9.40
2019-03-05T09:35:35.636Z,10.00
2019-03-05T09:36:35.611Z,9.40
2019-03-05T09:37:35.591Z,11.00
2019-03-05T09:38:35.572Z,10.40
2019-03-05T09:39:35.561Z,10.00
2019-03-05T09:40:35.529Z,9.20
2019-03-05T09:41:35.512Z,10.00
2019-03-05T09:42:39.806Z,9.80
2019-03-05T09:43:35.475Z,10.20
2019-03-05T09:44:35.457Z,10.10
2019-03-05T09:45:35.429Z,10.10
2019-03-05T09:46:35.409Z,10.00
2019-03-05T09:47:35.400Z,10.00
2019-03-05T09:48:35.378Z,10.20
2019-03-05T09:49:35.350Z,9.80
2019-03-05T09:50:35.311Z,9.30
2019-03-05T09:51:35.293Z,9.50
2019-03-05T09:53:08.484Z,9.90
2019-03-05T09:53:35.275Z,9.60
2019-03-05T09:54:35.255Z,9.10
2019-03-05T09:55:35.246Z,9.60
2019-03-05T09:56:35.218Z,9.90
2019-03-05T09:57:35.188Z,10.10
2019-03-05T09:58:35.182Z,9.80
2019-03-05T09:59:35.151Z,9.10
2019-03-05T10:00:35.132Z,9.60
2019-03-05T10:01:35.113Z,10.40
2019-03-05T10:02:35.090Z,10.80
2019-03-05T10:03:35.078Z,11.00
2019-03-05T10:04:35.061Z,11.10
2019-03-05T10:05:35.034Z,11.40
2019-03-05T10:06:35.013Z,11.70
2019-03-05T10:07:34.999Z,11.90
2019-03-05T10:08:34.987Z,11.60
2019-03-05T10:09:34.959Z,12.30
2019-03-05T10:10:34.923Z,12.50
2019-03-05T10:11:34.923Z,13.40
2019-03-05T10:12:34.902Z,12.90
2019-03-05T10:13:34.876Z,12.30
2019-03-05T10:14:34.866Z,12.80
2019-03-05T10:15:34.838Z,13.10
2019-03-05T10:16:34.819Z,13.40
2019-03-05T10:17:38.156Z,11.90
2019-03-05T10:18:34.764Z,12.90
2019-03-05T10:19:34.773Z,12.30
2019-03-05T10:20:34.744Z,11.40
2019-03-05T10:21:45.567Z,11.90
2019-03-05T10:22:34.709Z,11.90
2019-03-05T10:23:34.687Z,12.20
2019-03-05T10:24:34.684Z,10.90
2019-03-05T10:25:34.628Z,10.30
2019-03-05T10:26:34.639Z,9.00
2019-03-05T10:27:34.609Z,7.10
2019-03-05T10:28:34.587Z,7.00
2019-03-05T10:29:34.552Z,8.60
2019-03-05T10:30:34.555Z,8.10
2019-03-05T10:31:34.517Z,7.90
2019-03-05T10:32:34.498Z,8.60
2019-03-05T10:33:34.500Z,8.60
2019-03-05T10:34:34.484Z,8.90
2019-03-05T10:35:34.457Z,8.90
2019-03-05T10:36:34.438Z,9.20
2019-03-05T10:37:34.419Z,8.60
2019-03-05T10:38:34.394Z,7.90
2019-03-05T10:39:34.385Z,8.00
2019-03-05T10:40:34.367Z,7.80
2019-03-05T10:41:34.342Z,8.00
2019-03-05T10:42:34.321Z,7.70
2019-03-05T10:43:34.305Z,8.00
2019-03-05T10:44:34.281Z,7.50
2019-03-05T10:45:34.248Z,7.90
2019-03-05T10:46:34.247Z,5.50
2019-03-05T10:47:34.288Z,6.10
2019-03-05T10:48:34.211Z,5.90
2019-03-05T10:49:34.190Z,6.10
2019-03-05T10:50:34.175Z,5.90
2019-03-05T10:51:34.158Z,5.90
2019-03-05T10:52:34.135Z,6.00
2019-03-05T10:53:34.107Z,6.10
2019-03-05T10:54:34.101Z,5.50
2019-03-05T10:55:34.082Z,5.30
2019-03-05T10:56:34.045Z,5.20
2019-03-05T10:57:34.049Z,5.30
2019-03-05T10:58:34.574Z,5.30
2019-03-05T10:59:34.003Z,5.20
2019-03-05T11:00:33.983Z,4.70
2019-03-05T11:01:33.971Z,4.60
2019-03-05T11:02:33.948Z,4.60
2019-03-05T11:03:33.935Z,4.50
2019-03-05T11:04:33.922Z,4.40
2019-03-05T11:05:33.897Z,5.20
2019-03-05T11:06:33.875Z,4.50
2019-03-05T11:07:33.863Z,3.70
2019-03-05T11:08:33.839Z,4.20
2019-03-05T11:09:33.823Z,3.90
2019-03-05T11:10:33.804Z,3.90
2019-03-05T11:11:33.788Z,3.90
2019-03-05T11:12:33.770Z,4.00
2019-03-05T11:13:33.733Z,3.70
2019-03-05T11:14:33.717Z,4.30
2019-03-05T11:15:33.718Z,4.10
2019-03-05T11:16:33.704Z,3.60
2019-03-05T11:17:33.679Z,4.20
2019-03-05T11:18:33.660Z,4.10
2019-03-05T11:19:33.644Z,4.00
2019-03-05T11:20:33.631Z,4.00
2019-03-05T11:21:33.594Z,3.60
2019-03-05T11:22:33.595Z,3.80
2019-03-05T11:23:33.558Z,3.30
2019-03-05T11:24:33.543Z,3.20
2019-03-05T11:25:33.540Z,3.20
2019-03-05T11:26:33.530Z,3.20
2019-03-05T11:27:33.506Z,3.20
2019-03-05T11:28:33.494Z,3.40
2019-03-05T11:29:33.452Z,3.50
2019-03-05T11:30:36.415Z,3.30
2019-03-05T11:31:33.445Z,3.70
2019-03-05T11:32:33.419Z,3.30
2019-03-05T11:33:33.405Z,3.50
2019-03-05T11:34:33.398Z,3.50
2019-03-05T11:35:33.379Z,3.30
2019-03-05T11:36:33.560Z,3.30
2019-03-05T11:37:33.335Z,3.60
2019-03-05T11:38:33.322Z,3.40
2019-03-05T11:39:33.305Z,3.40
2019-03-05T11:40:33.299Z,3.70
2019-03-05T11:41:33.251Z,3.30
2019-03-05T11:42:33.247Z,3.60
2019-03-05T11:43:33.249Z,3.10
2019-03-05T11:44:33.224Z,3.40
2019-03-05T11:45:33.212Z,3.50
2019-03-05T11:46:33.192Z,3.20
2019-03-05T11:47:33.178Z,3.40
2019-03-05T11:48:33.161Z,3.40
2019-03-05T11:49:33.149Z,3.20
2019-03-05T11:50:33.134Z,3.00
2019-03-05T11:51:33.122Z,3.10
2019-03-05T11:52:33.103Z,3.30
2019-03-05T11:53:33.085Z,3.10
2019-03-05T11:54:33.069Z,3.30
2019-03-05T11:55:33.055Z,2.80
2019-03-05T11:56:33.051Z,3.00
2019-03-05T11:57:33.009Z,3.40
2019-03-05T11:58:33.010Z,3.30
2019-03-05T11:59:32.997Z,3.10
2019-03-05T12:00:32.984Z,3.40
2019-03-05T12:01:32.960Z,3.30
2019-03-05T12:02:32.948Z,2.70
2019-03-05T12:03:32.933Z,2.90
2019-03-05T12:04:32.930Z,3.40
2019-03-05T12:05:32.908Z,3.30
2019-03-05T12:06:32.896Z,3.10
2019-03-05T12:07:32.875Z,3.10
2019-03-05T12:08:32.858Z,3.10
2019-03-05T12:09:32.824Z,3.40
2019-03-05T12:10:32.831Z,3.20
2019-03-05T12:11:32.813Z,3.30
2019-03-05T12:12:32.804Z,3.30
2019-03-05T12:13:32.783Z,3.50
2019-03-05T12:14:32.767Z,3.60
2019-03-05T12:15:32.752Z,3.70
2019-03-05T12:16:32.743Z,3.50
2019-03-05T12:17:32.722Z,3.50
2019-03-05T12:18:32.684Z,3.10
2019-03-05T12:19:32.676Z,3.70
2019-03-05T12:20:32.656Z,3.70
2019-03-05T12:21:32.654Z,3.70
2019-03-05T12:22:32.672Z,3.60
2019-03-05T12:23:32.629Z,4.00
2019-03-05T12:24:32.613Z,3.60
2019-03-05T12:25:36.233Z,3.80
2019-03-05T12:26:32.575Z,3.90
2019-03-05T12:27:32.547Z,3.60
2019-03-05T12:28:32.528Z,3.20
2019-03-05T12:29:32.537Z,3.70
2019-03-05T12:30:32.520Z,3.70
2019-03-05T12:31:32.507Z,3.30
2019-03-05T12:32:32.493Z,3.60
2019-03-05T12:33:32.478Z,3.80
2019-03-05T12:34:32.464Z,3.80
2019-03-05T12:35:32.425Z,3.70
2019-03-05T12:36:32.420Z,3.50
2019-03-05T12:37:32.420Z,3.80
2019-03-05T12:38:32.387Z,3.60
2019-03-05T12:39:32.376Z,3.20
2019-03-05T12:40:32.367Z,3.20
2019-03-05T12:41:32.373Z,3.20
2019-03-05T12:42:32.360Z,3.20
2019-03-05T12:43:32.346Z,3.50
2019-03-05T12:44:32.339Z,3.20
2019-03-05T12:45:32.332Z,3.30
2019-03-05T12:46:32.309Z,3.00
2019-03-05T12:47:32.301Z,2.90
2019-03-05T12:48:39.981Z,3.00
2019-03-05T12:49:32.280Z,3.30
2019-03-05T12:50:32.260Z,3.00
2019-03-05T12:51:32.249Z,3.40
2019-03-05T12:52:32.238Z,3.20
2019-03-05T12:53:32.229Z,3.00
2019-03-05T12:54:32.214Z,3.60
2019-03-05T12:55:32.208Z,3.40
2019-03-05T12:56:32.178Z,3.00
2019-03-05T12:57:32.190Z,3.20
2019-03-05T12:58:32.175Z,3.10
2019-03-05T12:59:32.156Z,3.10
2019-03-05T13:00:32.155Z,2.60
2019-03-05T13:01:34.799Z,3.40
2019-03-05T13:02:32.112Z,3.20
2019-03-05T13:03:32.097Z,3.00
2019-03-05T13:04:32.080Z,3.00
2019-03-05T13:05:32.085Z,3.10
2019-03-05T13:06:32.075Z,3.10
2019-03-05T13:07:32.062Z,2.90
2019-03-05T13:08:32.058Z,3.40
2019-03-05T13:09:32.036Z,3.10
2019-03-05T13:10:37.338Z,3.10